createdAt,value
2019-01-15T08:20:47.501Z,4.10
2019-01-15T08:23:15.006Z,3.50
2019-01-15T08:25:42.573Z,4.27
2019-01-15T08:28:10.073Z,3.40
2019-01-15T08:30:37.623Z,4.27
2019-01-15T08:33:05.417Z,3.90
2019-01-15T08:35:32.934Z,4.73
2019-01-15T08:38:00.454Z,3.63
2019-01-15T08:40:28.095Z,4.47
2019-01-15T08:42:55.582Z,5.23
2019-01-15T08:45:23.074Z,3.63
2019-01-15T08:47:52.737Z,5.73
2019-01-15T08:50:22.558Z,3.70
2019-01-15T08:52:50.043Z,7.83
2019-01-15T08:55:17.557Z,3.30
2019-01-15T08:57:45.097Z,3.40
2019-01-15T09:00:12.910Z,3.30
2019-01-15T09:02:40.398Z,4.43
2019-01-15T09:05:08.373Z,3.83
2019-01-15T09:07:35.891Z,3.73
2019-01-15T09:10:05.287Z,2.77
2019-01-15T09:12:32.876Z,4.30
2019-01-15T09:15:00.371Z,4.47
2019-01-15T09:17:27.907Z,4.90
2019-01-15T09:19:55.475Z,6.63
2019-01-15T09:22:23.057Z,5.13
2019-01-15T09:24:50.549Z,4.90
2019-01-15T09:27:18.117Z,5.50
2019-01-15T09:29:45.613Z,4.50
2019-01-15T09:32:13.135Z,4.97
2019-01-15T09:34:40.721Z,4.60
2019-01-15T09:37:10.044Z,5.17
2019-01-15T09:39:37.562Z,3.60
2019-01-15T09:42:05.127Z,4.73
2019-01-15T15:22:21.907Z,14.20
2019-01-15T15:25:11.717Z,15.57
2019-01-15T15:27:55.808Z,15.30
2019-01-15T15:30:41.619Z,13.93
2019-01-15T15:33:23.406Z,12.70
2019-01-15T15:36:28.889Z,12.27
2019-01-15T15:39:15.903Z,10.57
2019-01-15T15:42:01.310Z,9.23
2019-01-15T15:44:51.668Z,10.07
2019-01-15T15:47:41.751Z,8.00
2019-01-15T15:50:21.382Z,8.30
2019-01-15T15:53:17.494Z,10.00
2019-01-15T15:55:59.214Z,9.50
2019-01-15T15:58:52.058Z,9.57
2019-01-15T16:01:37.651Z,9.60
2019-01-15T16:04:33.827Z,9.23
2019-01-15T16:07:20.837Z,9.47
2019-01-15T16:10:15.411Z,9.20
2019-01-15T16:13:05.402Z,10.53
2019-01-15T16:15:55.887Z,9.20
2019-01-15T16:18:41.821Z,10.47
2019-01-15T16:21:35.171Z,11.00
2019-01-15T16:24:20.702Z,10.93
2019-01-15T16:27:20.031Z,11.07
2019-01-15T16:30:25.527Z,10.30
2019-01-15T16:33:20.676Z,9.33
2019-01-15T16:35:56.597Z,8.87
2019-01-15T16:38:50.003Z,9.50
2019-01-15T16:41:35.541Z,9.03
2019-01-15T16:44:21.697Z,8.43
2019-01-15T16:47:10.065Z,8.37
2019-01-15T16:49:55.543Z,8.60
2019-01-15T16:52:42.567Z,9.03
2019-01-15T16:55:28.537Z,8.70
2019-01-15T16:58:11.304Z,8.70
2019-01-15T17:00:57.070Z,9.10
2019-01-15T17:03:41.031Z,9.43
2019-01-15T17:06:28.109Z,13.13
2019-01-15T17:09:20.953Z,10.63
2019-01-15T17:12:08.011Z,11.50
2019-01-15T17:14:55.023Z,13.57
2019-01-15T17:17:47.864Z,10.90
2019-01-15T17:20:37.743Z,11.20
2019-01-15T17:23:27.587Z,13.00
2019-01-15T17:26:14.580Z,11.80
2019-01-15T17:29:19.783Z,11.80
2019-01-15T17:32:04.554Z,12.57
2019-01-15T17:34:39.014Z,12.00
2019-01-15T17:37:28.867Z,11.53
2019-01-15T17:40:06.204Z,15.60
2019-01-15T17:43:02.062Z,12.80
2019-01-15T17:46:04.328Z,13.20
2019-01-15T17:48:56.897Z,12.53
2019-01-15T17:51:46.916Z,13.70
2019-01-15T17:54:41.184Z,15.30
2019-01-15T17:57:31.266Z,14.67
2019-01-15T18:00:36.366Z,14.47
2019-01-15T18:03:26.124Z,16.67
2019-01-15T18:06:28.127Z,16.23
2019-01-15T18:09:24.114Z,16.73
2019-01-15T18:12:11.270Z,16.53
2019-01-15T18:15:01.140Z,16.57
2019-01-15T18:17:46.674Z,17.37
2019-01-15T18:20:32.152Z,17.30
2019-01-15T18:23:28.356Z,16.57
2019-01-15T18:26:12.442Z,16.63
2019-01-15T18:28:50.316Z,17.37
2019-01-15T18:31:36.813Z,16.43
2019-01-15T18:34:31.708Z,16.40
2019-01-15T18:37:27.554Z,16.70
2019-01-15T18:40:20.383Z,15.93
2019-01-15T18:43:06.036Z,17.00
2019-01-15T18:45:50.469Z,14.80
2019-01-15T18:48:36.723Z,26.07
2019-01-15T18:51:37.762Z,20.10
2019-01-15T18:54:26.278Z,19.07
2019-01-15T18:57:19.630Z,19.50
2019-01-15T19:00:12.982Z,18.70
2019-01-15T19:03:02.896Z,18.53
2019-01-15T19:05:45.462Z,17.57
2019-01-15T19:08:32.836Z,16.40
2019-01-15T19:11:31.731Z,12.90
2019-01-15T19:14:21.527Z,14.83
2019-01-15T19:17:06.955Z,13.53
2019-01-15T19:19:53.948Z,12.83
2019-01-15T19:22:40.987Z,12.60
2019-01-15T19:25:26.426Z,12.70
2019-01-15T19:28:19.736Z,11.67
2019-01-15T19:31:16.124Z,12.40
2019-01-15T19:34:18.088Z,12.60
2019-01-15T19:37:03.947Z,13.87
2019-01-15T19:39:54.030Z,15.17
2019-01-15T19:42:39.440Z,13.03
2019-01-15T19:45:26.738Z,15.33
2019-01-15T19:48:12.988Z,22.00
2019-01-15T19:50:58.678Z,23.93
2019-01-15T19:53:43.580Z,21.20
2019-01-15T19:56:39.894Z,14.00
2019-01-15T19:59:20.337Z,10.43
2019-01-15T20:02:06.967Z,12.20
2019-01-15T20:04:52.594Z,15.40
2019-01-15T20:07:37.812Z,19.13
2019-01-15T20:10:24.985Z,15.80
2019-01-15T20:13:18.225Z,24.60
2019-01-15T20:16:14.362Z,17.47
2019-01-15T20:19:00.006Z,12.67
2019-01-15T20:21:56.334Z,20.63
2019-01-15T20:24:52.338Z,19.03
2019-01-15T20:27:34.931Z,20.93
2019-01-15T20:30:31.012Z,23.20
2019-01-15T20:33:16.566Z,33.17
2019-01-15T20:36:22.079Z,28.57
2019-01-15T20:39:11.778Z,33.67
2019-01-15T20:41:56.312Z,23.80
2019-01-15T20:44:43.298Z,24.10
2019-01-15T20:47:29.170Z,19.23
2019-01-15T20:50:19.514Z,19.23
2019-01-15T20:53:09.435Z,16.50
2019-01-15T20:56:05.354Z,16.87
2019-01-15T20:58:39.262Z,15.63
2019-01-15T21:01:26.238Z,14.20
2019-01-15T21:04:12.115Z,14.93
2019-01-15T21:06:58.013Z,14.67
2019-01-15T21:09:43.860Z,11.97
2019-01-15T21:12:29.746Z,13.77
2019-01-15T21:15:15.860Z,12.17
2019-01-15T21:17:59.516Z,9.77
2019-01-15T21:20:48.750Z,10.57
2019-01-15T21:23:38.935Z,9.83
2019-01-15T21:26:25.991Z,9.90
2019-01-15T21:29:12.988Z,10.00
2019-01-15T21:31:50.825Z,9.93
2019-01-15T21:34:36.243Z,9.23
2019-01-15T21:37:26.495Z,8.53
2019-01-15T21:40:05.447Z,8.33
2019-01-15T21:42:51.678Z,6.57
2019-01-15T21:45:41.703Z,8.57
2019-01-15T21:48:28.764Z,7.63
2019-01-15T21:51:14.608Z,7.57
2019-01-15T21:54:16.943Z,9.13
2019-01-15T21:57:01.107Z,9.30
2019-01-15T21:59:57.196Z,10.80
2019-01-15T22:02:49.439Z,13.23
2019-01-15T22:05:39.515Z,11.33
2019-01-15T22:08:25.211Z,12.87
2019-01-15T22:11:12.267Z,13.03
2019-01-15T22:13:59.308Z,16.23
2019-01-15T22:16:43.143Z,16.37
2019-01-15T22:19:30.179Z,14.10
2019-01-15T22:22:17.319Z,15.00
2019-01-15T22:25:03.295Z,14.30
2019-01-15T22:27:53.447Z,15.80
2019-01-15T22:30:49.727Z,15.47
2019-01-15T22:33:42.797Z,16.33
2019-01-15T22:36:24.887Z,15.83
2019-01-15T22:39:21.031Z,18.17
2019-01-15T22:42:02.952Z,14.00
2019-01-15T22:44:48.989Z,14.00
2019-01-15T22:47:34.759Z,13.27
2019-01-15T22:50:20.193Z,11.97
2019-01-15T22:52:54.607Z,12.30
2019-01-15T22:55:33.052Z,11.80
2019-01-15T22:58:22.623Z,13.70
2019-01-15T23:01:10.228Z,13.63
2019-01-15T23:04:02.023Z,13.17
2019-01-15T23:06:52.135Z,12.33
2019-01-15T23:09:39.151Z,12.17
2019-01-15T23:12:32.265Z,11.43
2019-01-15T23:15:07.575Z,12.93
2019-01-15T23:17:49.773Z,13.87
2019-01-15T23:20:35.224Z,11.37
2019-01-15T23:23:25.619Z,13.07
2019-01-15T23:26:05.863Z,11.67
2019-01-15T23:29:07.927Z,10.63
2019-01-15T23:31:53.831Z,10.90
2019-01-15T23:34:36.787Z,10.43
2019-01-15T23:37:27.019Z,11.53
2019-01-15T23:40:08.355Z,11.97
2019-01-15T23:42:49.499Z,12.17
2019-01-15T23:45:35.131Z,12.27
2019-01-15T23:48:21.107Z,10.73
2019-01-15T23:51:11.017Z,10.53
2019-01-15T23:53:58.044Z,10.40
2019-01-15T23:56:37.177Z,9.70
2019-01-15T23:59:20.127Z,8.33
